Airfield :
LOGIN :

Register | Disclaimer

   EN    FR    IT 

 










Legend :    VFR   Marginal VFR   IFR   Intensive IFR   Very Intensive IFR
Visi :
Ceiling :
>= 8 km
>= 3000ft
5 to 8 km
1000 to 3000 ft
1500m to 5 km
500 to 1000 ft
800 to 1500m
200 to 500 ft
< 800m
< 200 ft
Symbols :   Thunderstorms  Fog  Heavy snow  Heavy precipitations  Wind > 20 kt
SIGMETs :     Misc.  Thunderstorms  Icing  Turbulence  Mountain Waves  Volcanic Ashes






- Airport Elevation : 1496 ft
- IATA code : SBZ


LRSB - Sibiu

CURRENT METAR :
  • 210600Z 25005KT 9999 OVC023 M03/M06 Q1042 R27/19//95

EXPIRED METARs :
  • 210530Z 23006KT 9999 OVC023 M03/M07 Q1043 R27/19//95
  • 210500Z 25005KT 9999 OVC024 M03/M06 Q1043 R27/19//95
  • 210430Z 25005KT 9999 OVC023 M03/M06 Q1043 R27/19//95
  • 210400Z 26004KT 9999 OVC023 M03/M06 Q1043 R27/19//95
  • 210330Z 25005KT 9999 OVC023 M03/M06 Q1043 R27/19//95

TAF COR TAF LRSB
Valid from the 21 at 06:00 until the 22 at 06:00 UTC


210529Z 2106/2206 VRB04KT 9999 OVC025
BECMG 2122/2124 5000 BR BKN015
PROB30
TEMPO 2200/2206 1500 BR OVC005



MET'MAP, your aeronautical weather chart ! - Copyright ORBIFLY December 2007 - Disclaimer

ORBIFLY MET'MAP TEAM :

Programming & Development : Alexandra Zaïnal
Concept & original design : Baudouin d'Aumeries
Assistance for programming : Marc-Olivier Méhu
Technical & hardware support : Manuel Goepfert

Contact : metmap@orbifly.com




SOURCES & CREDITS :

   NOAA